Hauptseite
METAR-TAF:

METAR-TAF

Flughäfen :

Holzdorf, Deutschland

Fliegerhorst Holzdorf

Breite: 51-46N, Länge: 013-11E, Höhe: 79 m

Beobachtung

Neuester Wetterbericht von vor 21 Minuten, um 01:30 UTC
Wind 3 kt aus West
Temperatur 8°C
Luftfeuchtigkeit 93%
Luftdruck 1018 hPa
Sichtweite: 0050 m
Leicht bewölkt in der Höhe von 3000 ft
Nebel

METAR: ETSH 200130Z 26003KT 0050 FG FEW030 08/07 Q1018 RED

Zeit: 03:51 (01:51 UTC)

Prognose

Neuester Wetterbericht von vor 11 Stunden und 9 Minuten, um 14:42 UTC
Gültige Prognose vom 19 um 14 UTC bis 19 um 23 UTC
Wind 6 kt aus West/Südwest
Sichtweite: 1500 m
Aufgelockert bewölkt in der Höhe von 4000 ft

TAF: ETSH 191442Z 1914/1923 25006KT 9999 NSW SCT040 CANCEL 1500

Wetterbeobachtungen und Prognosen von mehr als 4000 Flughäfen (METAR und TAF Bericht).

Die verfügbaren Stationen werden durch gelbe und rote Markierungen auf der Karte dargestellt.

Führen Sie die Maus auf sie, um den Namen der Station zu sehen.

Darauf klicken, um die Beobachtung von Wetterbeobachtungen und Prognosen zu sehen.

Um die Karte zu ändern : klicken Sie auf den grünen Tasten mit einem schwarzen Kreuz Zum Vergrößern, auf den grünen Button mit einem Gedankenstrich zu verkleinern, oder auf die grünen Pfeile für benachbarte Karten.


METAR-TAF: